CheckWX is a tool to help pilots better visualize weather data.  It is not intended as a substitute for an official pre-flight weather briefing.

05:35:05 UTC

KJAN TAF
Jackson-Medgar Wiley Evers International Airport
Jackson, Mississippi, USA
KJAN 110524Z 1106/1206 02004KT P6SM FEW040

Jul-11@
06:00 UTC

Jul-11 @ 06:00 UTC

Jul-12@
06:00 UTC

Jul-12 @ 06:00 UTC

TAF KJAN 110524Z 1106/1206 02004KT P6SM FEW040
Wind
  • 020° at 4 KTS
Cloud Levels
  • Few at 4,000' AGL